createdAt,value
2023-02-19T00:00:57.526Z,11.20
2023-02-19T00:02:00.805Z,11.10
2023-02-19T00:03:03.761Z,11.20
2023-02-19T00:04:08.485Z,11.10
2023-02-19T00:05:10.694Z,11.10
2023-02-19T00:06:13.894Z,11.20
2023-02-19T00:07:16.919Z,11.10
2023-02-19T00:08:19.143Z,11.10
2023-02-19T00:09:25.205Z,11.10
2023-02-19T00:10:27.278Z,11.10
2023-02-19T00:11:33.955Z,11.10
2023-02-19T00:12:36.079Z,11.10
2023-02-19T00:13:41.110Z,11.10
2023-02-19T00:14:44.382Z,11.10
2023-02-19T00:15:46.500Z,11.10
2023-02-19T00:16:50.227Z,11.10
2023-02-19T00:17:52.404Z,11.10
2023-02-19T00:18:56.801Z,11.10
2023-02-19T00:19:58.874Z,11.10
2023-02-19T00:21:02.259Z,11.10
2023-02-19T00:22:04.286Z,11.00
2023-02-19T00:23:07.314Z,11.00
2023-02-19T00:24:12.993Z,11.00
2023-02-19T00:25:15.208Z,11.00
2023-02-19T00:26:19.115Z,11.00
2023-02-19T00:27:26.040Z,11.00
2023-02-19T00:28:28.541Z,11.00
2023-02-19T00:29:31.881Z,11.00
2023-02-19T00:30:34.189Z,11.00
2023-02-19T00:31:37.707Z,11.00
2023-02-19T00:32:40.190Z,11.00
2023-02-19T00:33:48.256Z,11.00
2023-02-19T00:34:50.317Z,11.00
2023-02-19T00:35:53.412Z,11.00
2023-02-19T00:36:56.651Z,11.00
2023-02-19T00:37:58.784Z,11.00
2023-02-19T00:39:01.966Z,11.00
2023-02-19T00:40:04.273Z,11.00
2023-02-19T00:41:19.967Z,11.00
2023-02-19T00:42:23.248Z,11.00
2023-02-19T00:43:27.135Z,11.00
2023-02-19T00:44:30.299Z,11.00
2023-02-19T00:45:34.441Z,11.00
2023-02-19T00:46:39.548Z,11.00
2023-02-19T00:47:41.760Z,11.00
2023-02-19T00:48:45.064Z,10.90
2023-02-19T00:49:47.153Z,10.90
2023-02-19T00:50:50.523Z,11.00
2023-02-19T00:51:53.421Z,11.00
2023-02-19T00:52:56.513Z,10.90
2023-02-19T00:53:58.953Z,11.00
2023-02-19T00:55:02.240Z,11.00
2023-02-19T00:56:05.386Z,11.00
2023-02-19T00:57:08.601Z,11.00
2023-02-19T00:58:10.680Z,11.00
2023-02-19T00:59:15.957Z,11.00
2023-02-19T01:00:18.281Z,11.00
2023-02-19T01:01:22.002Z,11.00
2023-02-19T01:02:24.037Z,11.00
2023-02-19T01:03:27.785Z,11.00
2023-02-19T01:04:31.017Z,11.00
2023-02-19T01:05:33.132Z,11.00
2023-02-19T01:06:36.619Z,11.00
2023-02-19T01:07:38.926Z,10.90
2023-02-19T01:08:42.044Z,10.90
2023-02-19T01:09:44.262Z,11.00
2023-02-19T01:10:48.269Z,11.00
2023-02-19T01:11:50.401Z,11.00
2023-02-19T01:12:53.772Z,10.90
2023-02-19T01:13:58.432Z,10.90
2023-02-19T01:15:02.935Z,10.90
2023-02-19T01:16:07.062Z,10.90
2023-02-19T01:17:10.241Z,10.90
2023-02-19T01:18:12.403Z,10.90
2023-02-19T01:19:15.663Z,10.90
2023-02-19T01:20:17.900Z,10.90
2023-02-19T01:21:23.164Z,10.90
2023-02-19T01:22:25.276Z,10.90
2023-02-19T01:23:28.438Z,10.90
2023-02-19T01:24:30.566Z,10.90
2023-02-19T01:25:33.688Z,10.90
2023-02-19T01:26:35.773Z,10.90
2023-02-19T01:27:39.605Z,10.90
2023-02-19T01:28:41.961Z,10.90
2023-02-19T01:29:45.110Z,10.90
2023-02-19T01:30:48.569Z,10.80
2023-02-19T01:31:51.832Z,10.90
2023-02-19T01:32:53.969Z,10.90
2023-02-19T01:34:00.069Z,10.90
2023-02-19T01:35:02.165Z,10.90
2023-02-19T01:36:06.702Z,10.80
2023-02-19T01:37:12.053Z,10.90
2023-02-19T01:38:15.177Z,10.80
2023-02-19T01:39:18.258Z,10.90
2023-02-19T01:40:20.515Z,10.90
2023-02-19T01:41:26.390Z,10.80
2023-02-19T01:42:28.498Z,10.80
2023-02-19T01:43:34.035Z,10.80
2023-02-19T01:45:19.249Z,10.80
2023-02-19T01:46:27.559Z,10.80
2023-02-19T01:47:29.828Z,10.80
2023-02-19T01:48:37.251Z,10.80
2023-02-19T01:49:48.734Z,10.80
2023-02-19T01:50:55.423Z,10.90
2023-02-19T01:52:00.348Z,10.80
2023-02-19T01:53:06.108Z,10.80
2023-02-19T01:54:12.529Z,10.80
2023-02-19T01:55:14.761Z,10.80
2023-02-19T01:56:21.363Z,10.80
2023-02-19T01:57:27.886Z,10.80
2023-02-19T01:58:34.532Z,10.80
2023-02-19T01:59:38.208Z,10.70
2023-02-19T02:00:41.678Z,10.70
2023-02-19T02:01:45.504Z,10.70
2023-02-19T02:02:52.701Z,10.70
2023-02-19T02:03:54.845Z,10.80
2023-02-19T02:05:00.194Z,10.70
2023-02-19T02:06:07.026Z,10.70
2023-02-19T02:07:24.395Z,10.70
2023-02-19T02:08:46.118Z,10.70
2023-02-19T02:10:06.612Z,10.70
2023-02-19T02:11:10.155Z,10.70
2023-02-19T02:12:13.036Z,10.70
2023-02-19T02:13:16.225Z,10.70
2023-02-19T02:14:20.193Z,10.70
2023-02-19T02:15:25.352Z,10.70
2023-02-19T02:16:36.730Z,10.70
2023-02-19T02:17:52.634Z,10.60
2023-02-19T02:19:02.754Z,10.60
2023-02-19T02:20:27.624Z,10.60
2023-02-19T02:21:46.777Z,10.60
2023-02-19T02:22:58.736Z,10.60
2023-02-19T02:24:40.678Z,10.60
2023-02-19T02:26:02.194Z,10.50
2023-02-19T02:27:20.838Z,10.40
2023-02-19T02:28:47.629Z,10.40
2023-02-19T02:30:26.975Z,10.30
2023-02-19T02:31:36.924Z,10.30
2023-02-19T02:32:53.271Z,10.20
2023-02-19T02:34:05.367Z,10.20
2023-02-19T02:35:11.370Z,10.10
2023-02-19T02:36:19.614Z,10.10
2023-02-19T02:37:23.279Z,10.10
2023-02-19T02:38:29.879Z,10.00
2023-02-19T02:39:32.765Z,10.00
2023-02-19T02:40:37.308Z,10.00
2023-02-19T02:41:44.383Z,10.00
2023-02-19T02:42:47.508Z,9.90
2023-02-19T02:43:50.594Z,10.00
2023-02-19T02:45:07.712Z,10.00
2023-02-19T02:46:20.137Z,9.90
2023-02-19T02:47:38.550Z,9.90
2023-02-19T02:48:46.590Z,9.80
2023-02-19T02:50:05.206Z,9.80
2023-02-19T02:51:17.380Z,9.80
2023-02-19T02:52:40.282Z,9.80
2023-02-19T02:54:06.770Z,9.70
2023-02-19T02:55:10.931Z,9.60
2023-02-19T02:56:16.649Z,9.60
2023-02-19T02:57:19.708Z,9.60
2023-02-19T02:58:29.225Z,9.50
2023-02-19T02:59:38.219Z,9.40
2023-02-19T03:01:02.842Z,9.40
2023-02-19T03:02:14.098Z,9.40
2023-02-19T03:03:20.021Z,9.40
2023-02-19T03:04:31.302Z,9.40
2023-02-19T03:05:51.826Z,9.40
2023-02-19T03:06:56.654Z,9.40
2023-02-19T03:08:04.716Z,9.40
2023-02-19T03:09:12.584Z,9.40
2023-02-19T03:10:19.818Z,9.30
2023-02-19T03:11:40.836Z,9.30
2023-02-19T03:13:04.368Z,9.30
2023-02-19T03:14:29.710Z,9.30
2023-02-19T03:15:56.121Z,9.20
2023-02-19T03:17:22.348Z,9.30
2023-02-19T03:18:47.848Z,9.20
2023-02-19T03:19:53.981Z,9.10
2023-02-19T03:20:58.544Z,9.10
2023-02-19T03:22:10.060Z,9.10
2023-02-19T03:23:13.904Z,9.10
2023-02-19T03:24:35.598Z,9.00
2023-02-19T03:25:58.047Z,9.10
2023-02-19T03:27:11.634Z,9.00
2023-02-19T03:28:41.074Z,9.00
2023-02-19T03:29:45.831Z,9.00
2023-02-19T03:30:53.474Z,9.00
2023-02-19T03:31:58.811Z,9.00
2023-02-19T03:33:09.220Z,9.00
2023-02-19T03:34:18.948Z,9.00
2023-02-19T03:35:24.378Z,8.90
2023-02-19T03:36:35.314Z,8.90
2023-02-19T03:37:42.698Z,8.90
2023-02-19T03:38:50.880Z,8.80
2023-02-19T03:39:55.600Z,8.80
2023-02-19T03:41:03.871Z,8.80
2023-02-19T03:42:17.842Z,8.80
2023-02-19T03:43:25.155Z,8.80
2023-02-19T03:44:37.610Z,8.80
2023-02-19T03:45:49.348Z,8.80
2023-02-19T03:46:56.212Z,8.80
2023-02-19T03:48:09.108Z,8.80
2023-02-19T03:49:16.841Z,8.80
2023-02-19T03:50:23.024Z,8.70
2023-02-19T03:51:31.450Z,8.70
2023-02-19T03:52:40.954Z,8.70
2023-02-19T03:53:51.972Z,8.70
2023-02-19T03:55:02.103Z,8.70
2023-02-19T03:56:10.318Z,8.70
2023-02-19T03:57:20.204Z,8.70
2023-02-19T03:58:28.208Z,8.70
2023-02-19T03:59:36.253Z,8.70
2023-02-19T04:00:44.129Z,8.70
2023-02-19T04:01:52.250Z,8.60
2023-02-19T04:03:00.459Z,8.70
2023-02-19T04:04:09.555Z,8.70
2023-02-19T04:05:16.421Z,8.70
2023-02-19T04:06:27.208Z,8.60
2023-02-19T04:07:33.219Z,8.70
2023-02-19T04:08:40.813Z,8.70
2023-02-19T04:09:48.293Z,8.60
2023-02-19T04:10:55.954Z,8.60
2023-02-19T04:12:03.202Z,8.60
2023-02-19T04:13:10.592Z,8.60
2023-02-19T04:14:19.458Z,8.60
2023-02-19T04:15:27.686Z,8.70
2023-02-19T04:16:31.231Z,8.70
2023-02-19T04:17:37.568Z,8.70
2023-02-19T04:18:44.692Z,8.70
2023-02-19T04:19:49.881Z,8.70
2023-02-19T04:20:54.616Z,8.70
2023-02-19T04:21:57.229Z,8.70
2023-02-19T04:23:00.671Z,8.70
2023-02-19T04:24:07.134Z,8.70
2023-02-19T04:25:10.525Z,8.60
2023-02-19T04:26:15.255Z,8.60
2023-02-19T04:27:18.953Z,8.60
2023-02-19T04:28:21.719Z,8.60
2023-02-19T04:29:25.023Z,8.60
2023-02-19T04:30:27.359Z,8.60
2023-02-19T04:31:35.325Z,8.60
2023-02-19T04:32:37.596Z,8.50
2023-02-19T04:33:40.883Z,8.60
2023-02-19T04:34:42.989Z,8.50
2023-02-19T04:35:46.054Z,8.60
2023-02-19T04:36:50.626Z,8.60
2023-02-19T04:37:52.703Z,8.50
2023-02-19T04:38:55.846Z,8.50
2023-02-19T04:39:57.974Z,8.40
2023-02-19T04:41:01.042Z,8.50
2023-02-19T04:42:03.151Z,8.50
2023-02-19T04:43:06.517Z,8.50
2023-02-19T04:44:08.593Z,8.50
2023-02-19T04:45:11.707Z,8.50
2023-02-19T04:46:13.914Z,8.50
2023-02-19T04:47:20.549Z,8.50
2023-02-19T04:48:22.667Z,8.50
2023-02-19T04:49:26.320Z,8.50
2023-02-19T04:50:28.446Z,8.40
2023-02-19T04:51:31.577Z,8.50
2023-02-19T04:52:35.626Z,8.40
2023-02-19T04:53:39.407Z,8.40
2023-02-19T04:54:41.587Z,8.50
2023-02-19T04:55:44.936Z,8.40
2023-02-19T04:56:47.039Z,8.40
2023-02-19T04:57:50.349Z,8.40
2023-02-19T04:58:52.474Z,8.50
2023-02-19T04:59:55.550Z,8.40
2023-02-19T05:00:57.729Z,8.40
2023-02-19T05:02:02.463Z,8.50
2023-02-19T05:03:04.514Z,8.50
2023-02-19T05:04:07.757Z,8.50
2023-02-19T05:05:09.847Z,8.50
2023-02-19T05:06:14.710Z,8.50
2023-02-19T05:07:16.896Z,8.50
2023-02-19T05:08:21.662Z,8.50
2023-02-19T05:09:23.791Z,8.50
2023-02-19T05:10:27.322Z,8.50
2023-02-19T05:11:29.528Z,8.50
2023-02-19T05:12:32.846Z,8.40
2023-02-19T05:13:35.024Z,8.50
2023-02-19T05:14:38.490Z,8.50
2023-02-19T05:15:40.635Z,8.50
2023-02-19T05:16:44.003Z,8.50
2023-02-19T05:17:46.120Z,8.50
2023-02-19T05:18:49.455Z,8.60
2023-02-19T05:19:51.559Z,8.60
2023-02-19T05:20:55.421Z,8.50
2023-02-19T05:21:57.562Z,8.50
2023-02-19T05:23:00.724Z,8.50
2023-02-19T05:24:05.090Z,8.60
2023-02-19T05:25:08.676Z,8.60
2023-02-19T05:26:13.444Z,8.60
2023-02-19T05:27:16.665Z,8.60
2023-02-19T05:28:19.755Z,8.50
2023-02-19T05:29:22.879Z,8.60
2023-02-19T05:30:25.232Z,8.60
2023-02-19T05:31:28.640Z,8.60
2023-02-19T05:32:30.902Z,8.60
2023-02-19T05:33:34.142Z,8.60
2023-02-19T05:34:36.370Z,8.60
2023-02-19T05:35:43.332Z,8.60
2023-02-19T05:36:46.447Z,8.60
2023-02-19T05:37:48.630Z,8.60
2023-02-19T05:38:55.224Z,8.60
2023-02-19T05:39:58.971Z,8.60
2023-02-19T05:41:09.651Z,8.60
2023-02-19T05:42:15.430Z,8.60
2023-02-19T05:43:18.077Z,8.60
2023-02-19T05:44:21.440Z,8.60
2023-02-19T05:45:23.694Z,8.60
2023-02-19T05:46:29.381Z,8.60
2023-02-19T05:47:31.649Z,8.60
2023-02-19T05:48:35.001Z,8.70
2023-02-19T05:49:37.190Z,8.60
2023-02-19T05:50:40.450Z,8.60
2023-02-19T05:51:50.831Z,8.60
2023-02-19T05:52:54.064Z,8.60
2023-02-19T05:53:57.366Z,8.60
2023-02-19T05:55:01.995Z,8.60
2023-02-19T05:56:04.976Z,8.60
2023-02-19T05:57:09.642Z,8.60
2023-02-19T05:58:11.814Z,8.60
2023-02-19T05:59:18.353Z,8.60
2023-02-19T06:00:21.177Z,8.70
2023-02-19T06:01:26.179Z,8.70
2023-02-19T06:02:28.562Z,8.70
2023-02-19T06:03:31.875Z,8.70
2023-02-19T06:04:35.184Z,8.70
2023-02-19T06:05:38.023Z,8.70
2023-02-19T06:06:42.237Z,8.70
2023-02-19T06:07:44.367Z,8.80
2023-02-19T06:08:48.996Z,8.80
2023-02-19T06:09:51.258Z,8.70
2023-02-19T06:10:56.084Z,8.70
2023-02-19T06:11:58.252Z,8.70
2023-02-19T06:13:01.548Z,8.70
2023-02-19T06:14:04.061Z,8.80
2023-02-19T06:15:08.248Z,8.70
2023-02-19T06:16:10.744Z,8.70
2023-02-19T06:17:13.871Z,8.80
2023-02-19T06:18:15.977Z,8.80
2023-02-19T06:19:19.265Z,8.70
2023-02-19T06:20:21.388Z,8.80
2023-02-19T06:21:24.613Z,8.80
2023-02-19T06:22:27.048Z,8.80
2023-02-19T06:23:30.934Z,8.80
2023-02-19T06:24:34.194Z,8.80
2023-02-19T06:25:37.442Z,8.80
2023-02-19T06:26:41.108Z,8.80
2023-02-19T06:27:44.465Z,8.80
2023-02-19T06:28:48.472Z,8.80
2023-02-19T06:29:52.123Z,8.80
2023-02-19T06:30:54.470Z,8.80
2023-02-19T06:31:57.707Z,8.80
2023-02-19T06:33:00.068Z,8.80
2023-02-19T06:34:05.345Z,8.90
2023-02-19T06:35:07.972Z,8.80
2023-02-19T06:36:14.804Z,8.90
2023-02-19T06:37:17.034Z,8.90
2023-02-19T06:38:21.973Z,8.90
2023-02-19T06:39:24.038Z,8.90
2023-02-19T06:40:27.334Z,8.90
2023-02-19T06:41:29.544Z,8.90
2023-02-19T06:42:34.476Z,8.90
2023-02-19T06:43:36.916Z,8.90
2023-02-19T06:44:40.165Z,8.90
2023-02-19T06:45:42.273Z,8.90
2023-02-19T06:46:45.499Z,9.00
2023-02-19T06:47:47.858Z,9.00
2023-02-19T06:48:51.160Z,8.90
2023-02-19T06:49:53.295Z,9.00
2023-02-19T06:50:56.825Z,9.00
2023-02-19T06:52:00.578Z,9.00
2023-02-19T06:53:03.940Z,9.00
2023-02-19T06:54:06.203Z,9.00
2023-02-19T06:55:10.671Z,9.00
2023-02-19T06:56:25.172Z,9.00
2023-02-19T06:57:28.348Z,9.10
2023-02-19T06:58:33.116Z,9.10
2023-02-19T06:59:36.439Z,9.20
2023-02-19T07:00:38.585Z,9.20
2023-02-19T07:01:41.921Z,9.20
2023-02-19T07:02:44.149Z,9.20
2023-02-19T07:03:47.458Z,9.20
2023-02-19T07:04:49.560Z,9.20
2023-02-19T07:05:52.758Z,9.20
2023-02-19T07:06:54.890Z,9.20
2023-02-19T07:07:58.161Z,9.30
2023-02-19T07:09:00.689Z,9.30
2023-02-19T07:10:03.970Z,9.30
2023-02-19T07:11:06.298Z,9.40
2023-02-19T07:12:10.278Z,9.40
2023-02-19T07:13:12.472Z,9.40
2023-02-19T07:14:18.352Z,9.40
2023-02-19T07:15:20.488Z,9.50
2023-02-19T07:16:24.453Z,9.50
2023-02-19T07:17:26.673Z,9.60
2023-02-19T07:18:30.948Z,9.50
2023-02-19T07:19:33.092Z,9.50
2023-02-19T07:20:36.389Z,9.50
2023-02-19T07:21:38.737Z,9.50
2023-02-19T07:22:41.988Z,9.50
2023-02-19T07:23:44.963Z,9.40
2023-02-19T07:24:48.127Z,9.50
2023-02-19T07:25:50.361Z,9.40
2023-02-19T07:26:53.774Z,9.40
2023-02-19T07:27:56.278Z,9.50
2023-02-19T07:28:59.527Z,9.40
2023-02-19T07:30:03.620Z,9.40
2023-02-19T07:31:07.016Z,9.50
2023-02-19T07:32:10.327Z,9.40
2023-02-19T07:33:12.442Z,9.50
2023-02-19T07:34:15.669Z,9.50
2023-02-19T07:35:17.784Z,9.50
2023-02-19T07:36:22.003Z,9.50
2023-02-19T07:37:24.142Z,9.60
2023-02-19T07:38:27.879Z,9.50
2023-02-19T07:39:30.146Z,9.50
2023-02-19T07:40:33.253Z,9.40
2023-02-19T07:41:35.431Z,9.30
2023-02-19T07:42:38.781Z,9.30
2023-02-19T07:43:41.546Z,9.40
2023-02-19T07:44:44.962Z,9.50
2023-02-19T07:45:50.242Z,9.50
2023-02-19T07:46:54.419Z,9.40
2023-02-19T07:47:59.628Z,9.40
2023-02-19T07:49:16.171Z,9.50
2023-02-19T07:50:22.563Z,9.50
2023-02-19T07:51:27.100Z,9.60
2023-02-19T07:52:29.769Z,9.60
2023-02-19T07:53:35.497Z,9.70
2023-02-19T07:54:38.848Z,9.80
2023-02-19T07:55:41.023Z,9.80
2023-02-19T07:56:44.252Z,9.90
2023-02-19T07:57:46.335Z,9.80
2023-02-19T07:58:49.575Z,9.80
2023-02-19T07:59:52.762Z,9.80
2023-02-19T08:00:56.570Z,9.80
2023-02-19T08:02:17.241Z,9.70
2023-02-19T08:03:20.538Z,9.70
2023-02-19T08:04:24.146Z,9.70
2023-02-19T08:05:30.631Z,9.60
2023-02-19T08:06:35.240Z,9.70
2023-02-19T08:07:39.099Z,9.70
2023-02-19T08:08:42.066Z,9.70
2023-02-19T08:10:11.486Z,9.60
2023-02-19T08:11:34.943Z,9.60
2023-02-19T08:12:56.157Z,9.60
2023-02-19T08:14:00.134Z,9.50
2023-02-19T08:15:02.270Z,9.40
2023-02-19T08:16:26.621Z,9.40
2023-02-19T08:17:35.748Z,9.40
2023-02-19T08:18:40.609Z,9.40
2023-02-19T08:19:44.378Z,9.50
2023-02-19T08:20:46.652Z,9.50
2023-02-19T08:21:50.749Z,9.50
2023-02-19T08:22:52.880Z,9.60
2023-02-19T08:23:55.968Z,9.60
2023-02-19T08:24:58.319Z,9.60
2023-02-19T08:26:03.254Z,9.60
2023-02-19T08:27:05.563Z,9.50
2023-02-19T08:28:11.251Z,9.60
2023-02-19T08:29:16.898Z,9.60
2023-02-19T08:30:23.696Z,9.60
2023-02-19T08:31:29.200Z,9.60
2023-02-19T08:32:32.179Z,9.60
2023-02-19T08:33:35.614Z,9.70
2023-02-19T08:34:38.036Z,9.70
2023-02-19T08:35:44.983Z,9.70
2023-02-19T08:36:48.349Z,9.70
2023-02-19T08:37:50.529Z,9.70
2023-02-19T08:38:53.586Z,9.70
2023-02-19T08:39:55.671Z,9.70
2023-02-19T08:40:59.066Z,9.80
2023-02-19T08:42:02.158Z,9.90
2023-02-19T08:43:04.758Z,9.90
2023-02-19T08:44:07.845Z,9.90
2023-02-19T08:45:10.179Z,9.90
2023-02-19T08:46:14.028Z,9.90
2023-02-19T08:47:17.617Z,9.90
2023-02-19T08:48:20.685Z,10.00
2023-02-19T08:49:26.262Z,10.00
2023-02-19T08:50:29.551Z,9.90
2023-02-19T08:51:31.552Z,10.00
2023-02-19T08:52:35.426Z,9.90
2023-02-19T08:53:39.130Z,9.90
2023-02-19T08:54:42.210Z,9.90
2023-02-19T08:55:44.336Z,9.90
2023-02-19T08:56:47.361Z,9.90
2023-02-19T08:57:50.663Z,9.90
2023-02-19T08:58:53.787Z,9.80
2023-02-19T08:59:56.267Z,9.80
2023-02-19T09:00:59.508Z,9.80
2023-02-19T09:02:01.719Z,9.90
2023-02-19T09:03:06.289Z,9.90
2023-02-19T09:04:12.840Z,9.90
2023-02-19T09:05:15.482Z,9.90
2023-02-19T09:06:20.780Z,9.90
2023-02-19T09:07:23.048Z,9.80
2023-02-19T09:08:26.121Z,9.70
2023-02-19T09:09:28.226Z,9.80
2023-02-19T09:10:31.271Z,9.70
2023-02-19T09:11:33.337Z,9.70
2023-02-19T09:12:36.418Z,9.70
2023-02-19T09:13:39.446Z,9.70
2023-02-19T09:14:41.989Z,9.70
2023-02-19T09:15:45.047Z,9.70
2023-02-19T09:16:48.052Z,9.70
2023-02-19T09:17:51.903Z,9.70
2023-02-19T09:18:56.366Z,9.70
2023-02-19T09:19:58.454Z,9.70
2023-02-19T09:21:02.512Z,9.70
2023-02-19T09:22:04.993Z,9.80
2023-02-19T09:23:08.031Z,9.90
2023-02-19T09:24:10.422Z,9.90
2023-02-19T09:25:13.479Z,9.90
2023-02-19T09:26:15.630Z,9.90
2023-02-19T09:27:20.822Z,9.90
2023-02-19T09:28:22.810Z,10.00
2023-02-19T09:29:27.495Z,10.00
2023-02-19T09:30:29.528Z,9.80
2023-02-19T09:31:35.256Z,9.80
2023-02-19T09:32:37.329Z,9.70
2023-02-19T09:33:43.715Z,9.70
2023-02-19T09:34:47.202Z,9.80
2023-02-19T09:35:50.242Z,9.70
2023-02-19T09:36:53.351Z,9.70
2023-02-19T09:37:56.364Z,9.60
2023-02-19T09:39:00.365Z,9.60
2023-02-19T09:40:03.400Z,9.70
2023-02-19T09:41:07.956Z,9.80
2023-02-19T09:42:15.465Z,9.90
2023-02-19T09:43:21.798Z,10.10
2023-02-19T09:44:28.550Z,10.30
2023-02-19T09:45:30.603Z,10.40
2023-02-19T09:46:38.175Z,10.50
2023-02-19T09:47:41.285Z,10.50
2023-02-19T09:48:43.304Z,10.50
2023-02-19T09:49:52.660Z,10.40
2023-02-19T09:50:56.900Z,10.30
2023-02-19T09:52:02.802Z,10.30
2023-02-19T09:53:12.690Z,10.10
2023-02-19T09:54:22.679Z,10.00
2023-02-19T09:55:31.228Z,9.80
2023-02-19T09:56:34.710Z,9.70
2023-02-19T09:57:37.953Z,9.50
2023-02-19T09:58:47.817Z,9.60
2023-02-19T09:59:53.612Z,9.50
2023-02-19T10:00:58.362Z,9.40
2023-02-19T10:02:05.947Z,9.40
2023-02-19T10:03:18.414Z,9.50
2023-02-19T10:04:21.508Z,9.40
2023-02-19T10:05:27.314Z,9.50
2023-02-19T10:06:30.249Z,9.50
2023-02-19T10:07:39.410Z,9.40
2023-02-19T10:08:42.235Z,9.50
2023-02-19T10:09:47.061Z,9.60
2023-02-19T10:10:50.131Z,9.60
2023-02-19T10:11:54.906Z,9.60
2023-02-19T10:13:11.079Z,9.70
2023-02-19T10:14:18.246Z,9.80
2023-02-19T10:15:29.349Z,9.80
2023-02-19T10:16:32.581Z,9.80
2023-02-19T10:17:37.373Z,9.90
2023-02-19T10:18:42.626Z,9.90
2023-02-19T10:19:44.785Z,9.90
2023-02-19T10:20:49.645Z,9.90
2023-02-19T10:21:52.841Z,9.90
2023-02-19T10:23:03.353Z,10.00
2023-02-19T10:24:07.294Z,10.10
2023-02-19T10:25:15.142Z,10.20
2023-02-19T10:26:17.853Z,10.20
2023-02-19T10:27:21.292Z,10.30
2023-02-19T10:28:28.349Z,10.30
2023-02-19T10:29:36.738Z,10.30
2023-02-19T10:30:38.937Z,10.30
2023-02-19T10:31:42.044Z,10.40
2023-02-19T10:33:00.413Z,10.40
2023-02-19T10:34:04.292Z,10.40
2023-02-19T10:35:11.442Z,10.50
2023-02-19T10:36:27.836Z,10.50
2023-02-19T10:37:30.795Z,10.60
2023-02-19T10:38:36.230Z,10.70
2023-02-19T10:39:43.723Z,10.80
2023-02-19T10:40:47.403Z,10.80
2023-02-19T10:41:50.692Z,10.90
2023-02-19T10:42:56.916Z,11.00
2023-02-19T10:44:06.558Z,11.10
2023-02-19T10:45:18.691Z,11.10
2023-02-19T10:46:23.967Z,11.10
2023-02-19T10:47:27.294Z,11.10
2023-02-19T10:48:33.465Z,11.20
2023-02-19T10:49:38.673Z,11.30
2023-02-19T10:50:51.521Z,11.10
2023-02-19T10:51:57.721Z,11.10
2023-02-19T10:53:02.103Z,11.00
2023-02-19T10:54:07.022Z,10.90
2023-02-19T10:55:17.862Z,10.90
2023-02-19T10:56:25.798Z,11.10
2023-02-19T10:57:32.985Z,11.30
2023-02-19T10:58:37.850Z,11.40
2023-02-19T10:59:49.637Z,11.50
2023-02-19T11:01:12.333Z,11.60
2023-02-19T11:02:18.968Z,11.70
2023-02-19T11:03:22.458Z,11.70
2023-02-19T11:04:26.677Z,11.60
2023-02-19T11:05:29.969Z,11.50
2023-02-19T11:06:34.986Z,11.40
2023-02-19T11:07:43.929Z,11.50
2023-02-19T11:08:53.288Z,11.40
2023-02-19T11:09:55.839Z,11.30
2023-02-19T11:10:58.913Z,11.30
2023-02-19T11:12:01.752Z,11.30
2023-02-19T11:13:07.436Z,11.30
2023-02-19T11:14:17.666Z,11.30
2023-02-19T11:15:23.287Z,11.40
2023-02-19T11:16:42.225Z,11.30
2023-02-19T11:17:45.521Z,11.40
2023-02-19T11:18:57.211Z,11.30
2023-02-19T11:20:04.738Z,11.20
2023-02-19T11:21:08.266Z,11.20
2023-02-19T11:22:29.080Z,11.20
2023-02-19T11:23:36.176Z,11.20
2023-02-19T11:24:40.580Z,11.30
2023-02-19T11:25:46.886Z,11.30
2023-02-19T11:26:50.286Z,11.40
2023-02-19T11:28:06.965Z,11.30
2023-02-19T11:29:19.703Z,11.40
2023-02-19T11:30:36.359Z,11.40
2023-02-19T11:31:39.947Z,11.40
2023-02-19T11:32:42.028Z,11.30
2023-02-19T11:33:46.724Z,11.40
2023-02-19T11:34:50.017Z,11.50
2023-02-19T11:35:55.417Z,11.50
2023-02-19T11:37:13.466Z,11.40
2023-02-19T11:38:17.258Z,11.30
2023-02-19T11:39:27.834Z,11.30
2023-02-19T11:40:39.575Z,11.20
2023-02-19T11:42:16.210Z,11.20
2023-02-19T11:43:36.884Z,11.20
2023-02-19T11:44:54.148Z,11.00
2023-02-19T11:46:07.029Z,11.00
2023-02-19T11:47:46.431Z,11.10
2023-02-19T11:48:55.873Z,11.20
2023-02-19T11:50:07.029Z,11.40
2023-02-19T11:51:25.265Z,11.50
2023-02-19T11:52:35.809Z,11.60
2023-02-19T11:53:48.682Z,11.70
2023-02-19T11:54:58.168Z,11.60
2023-02-19T11:56:16.973Z,11.50
2023-02-19T11:57:36.843Z,11.30
2023-02-19T11:58:58.941Z,11.10
2023-02-19T12:00:25.197Z,11.00
2023-02-19T12:01:59.511Z,10.80
2023-02-19T12:03:26.518Z,10.70
2023-02-19T12:05:09.529Z,10.40
2023-02-19T12:06:24.887Z,10.40
2023-02-19T12:07:51.366Z,10.50
2023-02-19T12:09:10.833Z,10.60
2023-02-19T12:10:21.918Z,10.60
2023-02-19T12:11:53.577Z,10.60
2023-02-19T12:13:05.757Z,10.80
2023-02-19T12:14:26.580Z,10.90
2023-02-19T12:16:00.086Z,10.80
2023-02-19T12:17:11.385Z,10.80
2023-02-19T12:18:37.159Z,10.90
2023-02-19T12:19:56.430Z,10.70
2023-02-19T12:21:14.364Z,10.60
2023-02-19T12:22:28.445Z,10.80
2023-02-19T12:23:47.525Z,10.90
2023-02-19T12:25:19.941Z,11.00
2023-02-19T12:26:26.045Z,11.20
2023-02-19T12:27:41.551Z,11.20
2023-02-19T12:29:01.542Z,11.10
2023-02-19T12:30:19.833Z,11.00
2023-02-19T12:31:45.373Z,11.10
2023-02-19T12:33:06.452Z,11.20
2023-02-19T12:34:37.312Z,11.10
2023-02-19T12:35:50.451Z,11.20
2023-02-19T12:37:04.319Z,11.30
2023-02-19T12:38:20.908Z,11.30
2023-02-19T12:39:35.134Z,11.30
2023-02-19T12:40:54.790Z,11.30
2023-02-19T12:42:03.762Z,11.10
2023-02-19T12:43:15.108Z,11.20
2023-02-19T12:44:23.699Z,11.20
2023-02-19T12:45:33.200Z,11.30
2023-02-19T12:46:39.774Z,11.30
2023-02-19T12:47:46.601Z,11.30
2023-02-19T12:48:56.264Z,11.40
2023-02-19T12:50:05.906Z,11.40
2023-02-19T12:51:15.590Z,11.20
2023-02-19T12:52:23.315Z,11.10
2023-02-19T12:53:35.595Z,10.90
2023-02-19T12:54:43.290Z,10.70
2023-02-19T12:55:48.271Z,10.50
2023-02-19T12:56:56.110Z,10.30
2023-02-19T12:58:02.332Z,10.20
2023-02-19T12:59:10.467Z,10.00
2023-02-19T13:00:27.976Z,10.00
2023-02-19T13:01:34.698Z,10.10
2023-02-19T13:02:45.573Z,10.10
2023-02-19T13:03:54.733Z,10.10
2023-02-19T13:05:03.035Z,10.10
2023-02-19T13:06:13.653Z,10.10
2023-02-19T13:07:22.465Z,10.10
2023-02-19T13:08:34.123Z,10.10
2023-02-19T13:09:42.335Z,10.10
2023-02-19T13:10:51.403Z,10.20
2023-02-19T13:11:57.766Z,10.20
2023-02-19T13:13:05.369Z,10.20
2023-02-19T13:14:17.734Z,10.30
2023-02-19T13:15:26.714Z,10.30
2023-02-19T13:16:33.203Z,10.40
2023-02-19T13:17:40.744Z,10.50
2023-02-19T13:18:48.287Z,10.50
2023-02-19T13:19:56.495Z,10.40
2023-02-19T13:20:59.387Z,10.40
2023-02-19T13:22:28.090Z,10.40
2023-02-19T13:23:52.142Z,10.30
2023-02-19T13:24:56.891Z,10.20
2023-02-19T13:26:16.080Z,10.30
2023-02-19T13:27:40.065Z,10.40
2023-02-19T13:29:00.606Z,10.50
2023-02-19T13:30:21.846Z,10.60
2023-02-19T13:31:46.022Z,10.60
2023-02-19T13:32:58.753Z,10.60
2023-02-19T13:34:15.094Z,10.70
2023-02-19T13:35:25.656Z,10.80
2023-02-19T13:36:30.853Z,10.80
2023-02-19T13:37:34.685Z,10.80
2023-02-19T13:38:43.961Z,10.80
2023-02-19T13:39:50.062Z,10.90
2023-02-19T13:40:57.602Z,11.00
2023-02-19T13:42:02.410Z,10.90
2023-02-19T13:43:06.551Z,11.00
2023-02-19T13:44:18.982Z,10.90
2023-02-19T13:45:24.600Z,10.70
2023-02-19T13:46:37.090Z,10.60
2023-02-19T13:47:48.322Z,10.40
2023-02-19T13:49:42.319Z,10.40
2023-02-19T13:50:45.777Z,10.30
2023-02-19T13:51:51.434Z,10.30
2023-02-19T13:52:54.013Z,10.30
2023-02-19T13:54:01.048Z,10.30
2023-02-19T13:55:47.217Z,10.30
2023-02-19T13:56:50.606Z,10.20
2023-02-19T13:57:53.412Z,10.30
2023-02-19T13:59:01.443Z,10.20
2023-02-19T14:00:43.171Z,10.20
2023-02-19T14:02:26.608Z,10.10
2023-02-19T14:03:30.359Z,10.10
2023-02-19T14:04:44.452Z,10.10
2023-02-19T14:06:02.622Z,10.10
2023-02-19T14:07:43.922Z,10.10
2023-02-19T14:08:53.228Z,10.00
2023-02-19T14:09:55.859Z,10.00
2023-02-19T14:11:02.530Z,10.00
2023-02-19T14:12:18.842Z,9.90
2023-02-19T14:13:59.244Z,9.90
2023-02-19T14:15:35.494Z,9.90
2023-02-19T14:17:04.998Z,9.90
2023-02-19T14:18:43.551Z,10.10
2023-02-19T14:19:51.442Z,10.00
2023-02-19T14:21:08.356Z,9.90
2023-02-19T14:22:47.517Z,9.80
2023-02-19T14:23:54.724Z,9.70
2023-02-19T14:24:58.452Z,9.70
2023-02-19T14:26:04.222Z,9.60
2023-02-19T14:27:06.490Z,9.70
2023-02-19T14:28:30.930Z,9.70
2023-02-19T14:29:37.465Z,9.70
2023-02-19T14:30:46.952Z,9.60
2023-02-19T14:31:50.351Z,9.70
2023-02-19T14:33:07.643Z,9.80
2023-02-19T14:34:22.484Z,9.80
2023-02-19T14:35:30.882Z,9.90
2023-02-19T14:36:44.133Z,9.90
2023-02-19T14:37:47.109Z,9.90
2023-02-19T14:38:54.075Z,9.80
2023-02-19T14:39:57.750Z,9.70
2023-02-19T14:41:01.959Z,9.80
2023-02-19T14:42:09.031Z,9.70
2023-02-19T14:43:15.176Z,9.80
2023-02-19T14:44:21.816Z,9.80
2023-02-19T14:45:24.766Z,9.90